Time;durP1;ratioP1;P1;durP2;ratioP2;P2;SDS_P1;SDS_P2;PMS_P1;PMS_P2;Temp;Humidity;BMP_temperature;BMP_pressure;BME280_temperature;BME280_humidity;BME280_pressure;Samples;Min_cycle;Max_cycle;Signal;HPM_P1;HPM_P2
2021/08/22 00:01:15;;;;;;;5.10;1.70;;;23.90;57.60;;;;;;2443370;55;20949;-82
2021/08/22 00:03:42;;;;;;;4.90;1.60;;;23.90;57.70;;;;;;2474646;55;20966;-83
2021/08/22 00:06:09;;;;;;;2.58;1.20;;;23.80;57.60;;;;;;2473900;55;21133;-83
2021/08/22 00:08:38;;;;;;;4.10;1.95;;;23.80;57.70;;;;;;2463442;55;21006;-82
2021/08/22 00:11:05;;;;;;;4.15;1.52;;;23.70;57.80;;;;;;2455614;55;21087;-84
2021/08/22 00:13:31;;;;;;;4.95;1.35;;;23.70;57.70;;;;;;2245359;55;20945;-84
2021/08/22 00:15:58;;;;;;;2.80;1.23;;;23.60;57.70;;;;;;2469853;55;20950;-83
2021/08/22 00:18:24;;;;;;;4.78;1.17;;;23.50;57.70;;;;;;2237185;55;20960;-83
2021/08/22 00:20:51;;;;;;;3.60;1.25;;;23.50;57.70;;;;;;2441812;54;22126;-83
2021/08/22 00:23:17;;;;;;;2.37;1.10;;;23.50;57.80;;;;;;2451485;55;22070;-83
2021/08/22 00:25:44;;;;;;;2.70;1.12;;;23.40;57.90;;;;;;2221984;55;21047;-82
2021/08/22 00:28:12;;;;;;;3.17;1.20;;;23.40;58.00;;;;;;2454838;55;21026;-83
2021/08/22 00:30:39;;;;;;;3.12;1.27;;;23.40;58.10;;;;;;2242384;55;21059;-83
2021/08/22 00:33:05;;;;;;;3.60;1.25;;;23.30;58.00;;;;;;2468023;55;21070;-83
2021/08/22 00:35:31;;;;;;;2.80;1.40;;;23.20;58.00;;;;;;2255421;55;21219;-83
2021/08/22 00:37:59;;;;;;;2.90;1.35;;;23.20;58.10;;;;;;2238610;55;21057;-82
2021/08/22 00:40:25;;;;;;;2.83;1.30;;;23.20;58.20;;;;;;2239948;55;20936;-82
2021/08/22 00:42:51;;;;;;;4.20;1.60;;;23.10;58.30;;;;;;2443333;55;21024;-82
2021/08/22 00:45:17;;;;;;;3.03;1.70;;;23.10;58.40;;;;;;2462108;55;21005;-84
2021/08/22 00:47:44;;;;;;;3.30;1.70;;;23.00;58.50;;;;;;2250197;55;20942;-83
2021/08/22 00:50:13;;;;;;;3.12;1.55;;;23.00;58.60;;;;;;2249513;55;21991;-83
2021/08/22 00:52:39;;;;;;;5.07;1.55;;;23.00;58.70;;;;;;2238163;55;20972;-82
2021/08/22 00:55:06;;;;;;;3.28;1.42;;;23.00;58.80;;;;;;2249380;55;21002;-83
2021/08/22 00:57:33;;;;;;;2.78;1.50;;;22.90;58.90;;;;;;2442575;55;20986;-82
2021/08/22 01:00:07;;;;;;;2.70;1.20;;;22.90;59.10;;;;;;2254087;55;21057;-82
2021/08/22 01:02:43;;;;;;;3.20;1.25;;;22.90;59.20;;;;;;2465246;54;21057;-83
2021/08/22 01:07:02;;;;;;;2.87;1.23;;;22.90;59.20;;;;;;2255027;55;21567;-82
2021/08/22 01:09:34;;;;;;;3.15;1.30;;;22.90;59.60;;;;;;2472774;55;21003;-82
2021/08/22 01:12:03;;;;;;;2.90;1.50;;;22.90;59.40;;;;;;2471681;55;20958;-81
2021/08/22 01:14:35;;;;;;;3.87;1.25;;;22.90;59.40;;;;;;2242131;55;21013;-82
2021/08/22 01:17:02;;;;;;;;;;;22.90;59.60;;;;;;2233194;55;21054;-84
2021/08/22 01:21:06;;;;;;;3.05;1.35;;;22.90;59.60;;;;;;2223254;55;20410;-83
2021/08/22 01:23:34;;;;;;;2.20;0.75;;;22.90;59.70;;;;;;2470943;55;21058;-81
2021/08/22 01:26:00;;;;;;;3.37;1.58;;;22.90;59.20;;;;;;2261082;55;20994;-81
2021/08/22 01:28:27;;;;;;;2.53;1.20;;;22.90;59.40;;;;;;2436171;55;21056;-81
2021/08/22 01:30:53;;;;;;;2.80;1.40;;;22.80;59.50;;;;;;2471654;55;20993;-82
2021/08/22 01:33:20;;;;;;;3.15;1.45;;;22.80;59.70;;;;;;2254780;55;21413;-81
2021/08/22 01:35:46;;;;;;;3.22;1.50;;;22.80;59.90;;;;;;2222438;55;20953;-81
2021/08/22 01:38:14;;;;;;;3.20;1.48;;;22.80;60.00;;;;;;2441476;55;22067;-81
2021/08/22 01:40:41;;;;;;;2.50;1.17;;;22.80;60.10;;;;;;2236649;55;21060;-82
2021/08/22 01:43:07;;;;;;;2.97;1.60;;;22.80;60.10;;;;;;2240885;55;20948;-81
2021/08/22 01:45:33;;;;;;;3.08;1.67;;;22.80;60.30;;;;;;2252636;55;20977;-82
2021/08/22 01:48:00;;;;;;;2.85;1.50;;;22.80;60.40;;;;;;2467936;55;20954;-81
2021/08/22 01:50:26;;;;;;;3.15;1.75;;;22.80;60.50;;;;;;2476170;55;20966;-82
2021/08/22 01:53:00;;;;;;;4.22;1.60;;;22.80;60.60;;;;;;2438337;54;20941;-83
2021/08/22 01:55:32;;;;;;;3.25;1.65;;;22.80;60.80;;;;;;2459807;55;21425;-85
2021/08/22 01:57:59;;;;;;;2.85;1.37;;;22.80;60.80;;;;;;2475887;55;20970;-88
2021/08/22 02:00:25;;;;;;;3.85;1.23;;;22.80;60.70;;;;;;2455935;55;20964;-84
2021/08/22 02:03:08;;;;;;;3.58;1.67;;;22.80;60.70;;;;;;2223251;55;21618;-83
2021/08/22 02:05:36;;;;;;;2.42;1.23;;;22.80;61.40;;;;;;2241448;55;21487;-84
2021/08/22 02:08:09;;;;;;;3.10;1.70;;;22.80;60.90;;;;;;2239265;55;21009;-84
2021/08/22 02:10:35;;;;;;;2.83;1.27;;;22.80;61.00;;;;;;2251566;55;20994;-83
2021/08/22 02:13:02;;;;;;;3.22;1.65;;;22.80;61.00;;;;;;2228307;55;20957;-84
2021/08/22 02:15:33;;;;;;;2.90;1.37;;;22.80;61.10;;;;;;2465810;55;20974;-82
2021/08/22 02:18:02;;;;;;;3.78;1.87;;;22.80;61.20;;;;;;2472664;55;21464;-82
2021/08/22 02:20:29;;;;;;;3.55;1.77;;;22.80;61.20;;;;;;2234007;55;21498;-82
2021/08/22 02:22:55;;;;;;;3.20;1.50;;;22.70;61.10;;;;;;2258591;55;20978;-82
2021/08/22 02:25:22;;;;;;;3.28;1.75;;;22.80;61.20;;;;;;2239161;55;20997;-82
2021/08/22 02:27:48;;;;;;;4.07;1.58;;;22.70;61.30;;;;;;2241154;55;20960;-80
2021/08/22 02:30:14;;;;;;;3.50;1.90;;;22.80;61.50;;;;;;2442014;55;20944;-81
2021/08/22 02:32:41;;;;;;;3.72;1.60;;;22.70;61.40;;;;;;2242345;55;21083;-84
2021/08/22 02:35:08;;;;;;;3.15;1.67;;;22.80;61.60;;;;;;2239095;55;21253;-84
2021/08/22 02:37:34;;;;;;;3.37;1.70;;;22.70;61.60;;;;;;2443684;55;20945;-84
2021/08/22 02:40:00;;;;;;;3.45;1.80;;;22.70;61.60;;;;;;2233157;55;22039;-84
2021/08/22 02:42:27;;;;;;;2.62;1.45;;;22.70;61.70;;;;;;2237860;55;21408;-84
2021/08/22 02:44:53;;;;;;;3.15;1.62;;;22.80;61.90;;;;;;2241869;55;21036;-84
2021/08/22 02:47:19;;;;;;;3.40;1.60;;;22.70;61.80;;;;;;2469975;55;21022;-83
2021/08/22 02:49:45;;;;;;;2.87;1.45;;;22.70;61.80;;;;;;2450322;55;20956;-82
2021/08/22 02:52:12;;;;;;;3.40;1.50;;;22.70;61.90;;;;;;2442238;55;20996;-82
2021/08/22 02:54:39;;;;;;;2.80;1.33;;;22.70;62.00;;;;;;2223192;55;21072;-85
2021/08/22 02:57:05;;;;;;;2.45;1.30;;;22.70;61.90;;;;;;2444611;55;20944;-83
2021/08/22 02:59:31;;;;;;;3.10;1.62;;;22.70;62.00;;;;;;2245625;55;20958;-84
2021/08/22 03:02:00;;;;;;;2.78;1.40;;;22.70;62.00;;;;;;2443513;55;20946;-84
2021/08/22 03:04:26;;;;;;;3.17;1.60;;;22.70;62.00;;;;;;2459622;55;21121;-85
2021/08/22 03:06:53;;;;;;;3.33;1.62;;;22.70;62.10;;;;;;2444705;55;20975;-83
2021/08/22 03:09:19;;;;;;;3.90;2.00;;;22.70;62.20;;;;;;2445221;55;20960;-85
2021/08/22 03:11:45;;;;;;;3.20;1.92;;;22.70;62.40;;;;;;2471790;55;21482;-84
2021/08/22 03:14:12;;;;;;;4.78;2.00;;;22.70;62.40;;;;;;2227217;55;21374;-83
2021/08/22 03:16:38;;;;;;;3.40;1.95;;;22.70;62.40;;;;;;2444044;55;21051;-84
2021/08/22 03:19:04;;;;;;;3.37;1.90;;;22.70;62.50;;;;;;2444763;55;20956;-84
2021/08/22 03:21:31;;;;;;;3.58;1.85;;;22.70;62.60;;;;;;2223281;55;20996;-83
2021/08/22 03:23:57;;;;;;;2.95;1.58;;;22.70;62.60;;;;;;2472257;55;21386;-82
2021/08/22 03:26:23;;;;;;;3.00;1.50;;;22.70;62.60;;;;;;2444743;55;22249;-82
2021/08/22 03:28:51;;;;;;;3.40;1.80;;;22.70;62.70;;;;;;2443806;55;21028;-82
2021/08/22 03:31:17;;;;;;;2.92;1.58;;;22.70;62.80;;;;;;2443734;55;20984;-82
2021/08/22 03:33:43;;;;;;;3.30;2.00;;;22.70;62.70;;;;;;2446604;55;21594;-81
2021/08/22 03:36:10;;;;;;;3.97;1.85;;;22.70;62.80;;;;;;2469505;55;21553;-82
2021/08/22 03:38:36;;;;;;;2.95;1.58;;;22.70;62.80;;;;;;2443119;55;20996;-82
2021/08/22 03:41:02;;;;;;;4.10;1.80;;;22.70;62.90;;;;;;2232213;55;21038;-82
2021/08/22 03:43:29;;;;;;;2.92;1.50;;;22.70;62.90;;;;;;2241366;55;21617;-82
2021/08/22 03:45:56;;;;;;;3.70;1.58;;;22.70;62.80;;;;;;2443232;55;20992;-84
2021/08/22 03:48:22;;;;;;;4.55;1.95;;;22.70;62.90;;;;;;2251351;55;21037;-84
2021/08/22 03:50:49;;;;;;;3.90;1.80;;;22.60;62.80;;;;;;2229914;55;22117;-84
2021/08/22 03:53:15;;;;;;;3.35;1.80;;;22.70;63.00;;;;;;2469821;55;20955;-84
2021/08/22 03:55:44;;;;;;;3.80;1.80;;;22.70;63.10;;;;;;2223025;55;20952;-85
2021/08/22 03:58:10;;;;;;;3.58;1.52;;;22.60;63.00;;;;;;2443792;55;22072;-85
2021/08/22 04:00:36;;;;;;;3.58;1.87;;;22.60;63.00;;;;;;2443300;55;20976;-82
2021/08/22 04:03:03;;;;;;;3.28;1.77;;;22.70;63.10;;;;;;2471730;55;21169;-82
2021/08/22 04:05:29;;;;;;;3.20;1.87;;;22.70;63.10;;;;;;2445067;55;21304;-82
2021/08/22 04:07:58;;;;;;;3.80;2.15;;;22.70;63.00;;;;;;2221515;55;20979;-82
2021/08/22 04:10:26;;;;;;;3.90;1.87;;;22.70;63.00;;;;;;2443450;55;21974;-83
2021/08/22 04:12:53;;;;;;;5.80;2.17;;;22.70;63.00;;;;;;2246242;55;20958;-82
2021/08/22 04:15:20;;;;;;;3.10;1.67;;;22.70;63.10;;;;;;2447181;55;20928;-83
2021/08/22 04:17:46;;;;;;;3.62;1.90;;;22.70;63.00;;;;;;2443865;55;22121;-82
2021/08/22 04:20:13;;;;;;;3.20;1.80;;;22.70;63.00;;;;;;2445613;55;20933;-82
2021/08/22 04:22:39;;;;;;;4.05;1.80;;;22.70;62.90;;;;;;2473805;54;20985;-82
2021/08/22 04:25:07;;;;;;;3.30;1.62;;;22.70;62.90;;;;;;2458730;55;20938;-81
2021/08/22 04:27:34;;;;;;;2.80;1.40;;;22.70;62.90;;;;;;2236263;55;20955;-81
2021/08/22 04:30:00;;;;;;;2.72;1.30;;;22.70;62.90;;;;;;2250790;55;20951;-82
2021/08/22 04:32:26;;;;;;;3.12;1.73;;;22.60;62.70;;;;;;2468737;55;20949;-83
2021/08/22 04:34:53;;;;;;;3.00;1.60;;;22.70;62.80;;;;;;2447214;55;21050;-82
2021/08/22 04:37:19;;;;;;;3.42;1.85;;;22.70;62.80;;;;;;2460139;55;20976;-82
2021/08/22 04:39:45;;;;;;;3.80;1.95;;;22.70;62.90;;;;;;2456203;55;20964;-82
2021/08/22 04:42:12;;;;;;;4.05;1.95;;;22.70;62.80;;;;;;2442667;55;20960;-83
2021/08/22 04:44:38;;;;;;;3.70;1.90;;;22.70;62.80;;;;;;2222249;55;21953;-82
2021/08/22 04:47:07;;;;;;;3.35;1.73;;;22.70;62.80;;;;;;2229297;55;21016;-82
2021/08/22 04:49:33;;;;;;;3.40;1.55;;;22.70;62.80;;;;;;2468920;55;21000;-83
2021/08/22 04:51:59;;;;;;;3.00;1.70;;;22.70;62.90;;;;;;2221676;55;20992;-82
2021/08/22 04:54:26;;;;;;;3.60;1.45;;;22.70;63.70;;;;;;2443386;55;21039;-83
2021/08/22 04:56:52;;;;;;;3.80;1.92;;;22.70;63.00;;;;;;2442897;55;22071;-81
2021/08/22 04:59:18;;;;;;;3.70;1.90;;;22.80;63.10;;;;;;2468236;54;21014;-83
2021/08/22 05:01:44;;;;;;;3.30;1.87;;;22.80;63.10;;;;;;2228572;55;22325;-81
2021/08/22 05:04:11;;;;;;;3.50;1.70;;;22.80;63.10;;;;;;2442925;55;20956;-82
2021/08/22 05:06:37;;;;;;;3.45;1.77;;;22.80;63.10;;;;;;2474745;55;20961;-82
2021/08/22 05:09:04;;;;;;;2.90;1.62;;;22.90;63.20;;;;;;2250159;55;20966;-82
2021/08/22 05:11:30;;;;;;;3.90;1.70;;;22.90;63.20;;;;;;2254328;55;22119;-82
2021/08/22 05:13:56;;;;;;;3.22;1.62;;;22.90;63.20;;;;;;2473776;55;20999;-82
2021/08/22 05:16:23;;;;;;;3.53;2.10;;;22.90;63.10;;;;;;2443232;55;20952;-83
2021/08/22 05:18:49;;;;;;;4.35;2.17;;;22.90;63.10;;;;;;2243191;55;20942;-82
2021/08/22 05:21:15;;;;;;;3.20;1.70;;;22.90;63.10;;;;;;2250854;55;21029;-85
2021/08/22 05:23:42;;;;;;;2.92;1.70;;;22.90;63.10;;;;;;2477368;55;21002;-84
2021/08/22 05:26:08;;;;;;;4.12;1.87;;;23.00;63.10;;;;;;2473367;55;20970;-82
2021/08/22 05:28:34;;;;;;;2.97;1.62;;;23.00;63.20;;;;;;2468054;55;21056;-82
2021/08/22 05:31:00;;;;;;;3.95;1.95;;;23.00;63.20;;;;;;2467948;55;21049;-83
2021/08/22 05:33:27;;;;;;;3.80;1.70;;;23.00;63.20;;;;;;2471422;55;21000;-83
2021/08/22 05:35:54;;;;;;;3.37;1.90;;;23.00;63.20;;;;;;2461842;55;20970;-81
2021/08/22 05:38:20;;;;;;;3.72;2.00;;;23.00;63.10;;;;;;2460256;55;21004;-82
2021/08/22 05:40:46;;;;;;;4.78;2.03;;;23.10;63.30;;;;;;2443522;55;21589;-83
2021/08/22 05:43:13;;;;;;;3.70;2.00;;;23.10;63.20;;;;;;2223594;55;21039;-83
2021/08/22 05:45:40;;;;;;;3.42;1.95;;;23.10;63.20;;;;;;2442937;55;21049;-82
2021/08/22 05:48:06;;;;;;;3.80;1.52;;;23.10;63.20;;;;;;2443488;55;20968;-82
2021/08/22 05:50:33;;;;;;;7.12;1.80;;;23.20;63.30;;;;;;2443270;55;20992;-83
2021/08/22 05:52:59;;;;;;;3.17;1.70;;;23.10;63.20;;;;;;2238023;55;20954;-82
2021/08/22 05:55:26;;;;;;;5.85;1.90;;;23.20;63.20;;;;;;2456617;55;21035;-84
2021/08/22 05:57:52;;;;;;;4.25;1.80;;;23.20;63.30;;;;;;2442978;55;21063;-82
2021/08/22 06:00:19;;;;;;;3.30;1.65;;;23.20;63.20;;;;;;2221944;55;20952;-83
2021/08/22 06:02:45;;;;;;;3.70;1.83;;;23.20;63.20;;;;;;2462624;55;20942;-84
2021/08/22 06:05:11;;;;;;;3.72;1.70;;;23.20;63.20;;;;;;2456672;55;20984;-84
2021/08/22 06:07:38;;;;;;;3.65;1.70;;;23.30;63.20;;;;;;2442566;55;20944;-82
2021/08/22 06:10:06;;;;;;;3.20;1.67;;;23.30;63.10;;;;;;2465491;55;21009;-82
2021/08/22 06:12:35;;;;;;;3.30;1.70;;;23.30;63.10;;;;;;2252913;55;21035;-82
2021/08/22 06:15:02;;;;;;;4.00;2.03;;;23.30;63.10;;;;;;2233528;55;21083;-82
2021/08/22 06:17:28;;;;;;;3.40;1.73;;;23.30;63.00;;;;;;2222453;55;20956;-81
2021/08/22 06:19:54;;;;;;;3.85;1.90;;;23.30;63.00;;;;;;2230837;55;21098;-83
2021/08/22 06:22:21;;;;;;;3.45;2.10;;;23.30;63.00;;;;;;2246319;55;21875;-85
2021/08/22 06:24:48;;;;;;;3.60;1.95;;;23.40;63.00;;;;;;2243337;55;21399;-82
2021/08/22 06:27:16;;;;;;;3.83;2.28;;;23.40;62.90;;;;;;2456436;55;21074;-82
2021/08/22 06:29:42;;;;;;;3.72;1.90;;;23.40;63.00;;;;;;2446457;55;20944;-82
2021/08/22 06:32:09;;;;;;;3.30;1.80;;;23.40;63.00;;;;;;2249589;55;21072;-85
2021/08/22 06:34:35;;;;;;;3.72;2.05;;;23.40;63.00;;;;;;2476129;55;21014;-84
2021/08/22 06:37:01;;;;;;;3.50;2.05;;;23.40;62.90;;;;;;2466351;55;21058;-83
2021/08/22 06:39:28;;;;;;;3.55;2.05;;;23.40;62.90;;;;;;2472330;55;21053;-84
2021/08/22 06:41:55;;;;;;;3.47;1.80;;;23.40;62.80;;;;;;2454635;55;20996;-83
2021/08/22 06:44:22;;;;;;;4.07;1.65;;;23.50;62.90;;;;;;2443472;55;21621;-82
2021/08/22 06:46:48;;;;;;;3.28;2.08;;;23.50;62.80;;;;;;2444710;55;21016;-84
2021/08/22 06:49:14;;;;;;;3.70;1.77;;;23.50;62.80;;;;;;2261692;55;21066;-82
2021/08/22 06:51:41;;;;;;;3.78;1.87;;;23.50;62.90;;;;;;2243893;55;20966;-83
2021/08/22 06:54:08;;;;;;;3.70;2.12;;;23.50;62.80;;;;;;2234385;55;21035;-82
2021/08/22 06:56:34;;;;;;;3.55;1.87;;;23.60;62.90;;;;;;2442648;55;20984;-82
2021/08/22 06:59:01;;;;;;;3.95;1.70;;;23.60;62.90;;;;;;2469757;55;21010;-83
2021/08/22 07:01:28;;;;;;;3.65;1.85;;;23.60;62.90;;;;;;2233804;55;21040;-82
2021/08/22 07:03:54;;;;;;;3.95;2.00;;;23.70;62.90;;;;;;2442526;55;21075;-82
2021/08/22 07:06:22;;;;;;;4.05;2.05;;;23.70;62.90;;;;;;2443648;55;21036;-82
2021/08/22 07:08:49;;;;;;;4.00;2.28;;;23.70;62.90;;;;;;2443124;55;21264;-82
2021/08/22 07:11:15;;;;;;;4.80;2.10;;;23.80;62.90;;;;;;2473030;54;21062;-82
2021/08/22 07:13:41;;;;;;;4.22;2.20;;;23.80;62.90;;;;;;2443126;55;20980;-82
2021/08/22 07:16:08;;;;;;;3.15;1.73;;;23.80;62.90;;;;;;2221614;55;20960;-82
2021/08/22 07:18:34;;;;;;;3.87;2.00;;;23.90;63.00;;;;;;2443145;55;20960;-82
2021/08/22 07:21:00;;;;;;;4.10;2.25;;;23.90;62.90;;;;;;2222277;55;21012;-81
2021/08/22 07:23:26;;;;;;;4.90;2.00;;;23.90;62.80;;;;;;2228420;55;20940;-82
2021/08/22 07:25:53;;;;;;;3.92;2.17;;;24.00;62.80;;;;;;2470452;55;21012;-82
2021/08/22 07:28:19;;;;;;;3.95;2.10;;;24.00;62.80;;;;;;2233423;55;22283;-82
2021/08/22 07:30:47;;;;;;;3.58;1.90;;;24.00;62.80;;;;;;2239370;55;20971;-83
2021/08/22 07:33:13;;;;;;;4.22;1.80;;;24.10;62.80;;;;;;2222654;55;20952;-82
2021/08/22 07:35:40;;;;;;;6.78;1.90;;;24.10;62.90;;;;;;2442994;55;20972;-83
2021/08/22 07:38:06;;;;;;;4.20;2.45;;;24.10;62.90;;;;;;2443274;55;22073;-82
2021/08/22 07:40:33;;;;;;;3.37;1.83;;;24.20;62.90;;;;;;2472741;55;20958;-81
2021/08/22 07:42:59;;;;;;;3.22;1.90;;;24.20;62.80;;;;;;2442759;55;20979;-83
2021/08/22 07:45:25;;;;;;;3.92;2.00;;;24.30;62.80;;;;;;2474365;55;21287;-82
2021/08/22 07:47:52;;;;;;;4.12;1.90;;;24.30;62.90;;;;;;2223985;55;21036;-84
2021/08/22 07:50:18;;;;;;;4.10;2.10;;;24.40;62.90;;;;;;2443730;55;21656;-82
2021/08/22 07:52:44;;;;;;;3.90;1.98;;;24.40;62.90;;;;;;2442979;55;20924;-82
2021/08/22 07:55:11;;;;;;;3.53;2.17;;;24.50;63.00;;;;;;2443219;55;20940;-82
2021/08/22 07:57:38;;;;;;;3.47;2.10;;;24.50;62.90;;;;;;2463415;55;21068;-82
2021/08/22 08:00:05;;;;;;;5.50;2.17;;;24.60;62.80;;;;;;2456830;54;20948;-82
2021/08/22 08:02:32;;;;;;;3.92;2.12;;;24.60;62.70;;;;;;2467209;54;20972;-82
2021/08/22 08:04:58;;;;;;;3.22;1.80;;;24.70;62.50;;;;;;2238786;55;21105;-83
2021/08/22 08:07:24;;;;;;;6.35;3.33;;;24.70;63.20;;;;;;2464931;55;20973;-81
2021/08/22 08:09:51;;;;;;;4.65;2.50;;;24.80;62.50;;;;;;2471939;55;20966;-84
2021/08/22 08:12:17;;;;;;;3.40;1.92;;;24.80;62.40;;;;;;2470922;55;20938;-82
2021/08/22 08:14:43;;;;;;;3.53;2.08;;;24.80;62.30;;;;;;2246467;55;21591;-82
2021/08/22 08:17:10;;;;;;;3.78;2.10;;;24.80;62.20;;;;;;2229326;55;21103;-82
2021/08/22 08:19:36;;;;;;;4.15;2.37;;;24.80;62.20;;;;;;2441990;55;20972;-81
2021/08/22 08:22:05;;;;;;;4.30;2.40;;;24.90;62.30;;;;;;2468160;54;20946;-82
2021/08/22 08:24:31;;;;;;;4.00;2.12;;;24.90;62.20;;;;;;2239164;55;20997;-84
2021/08/22 08:26:58;;;;;;;4.53;2.30;;;24.90;62.30;;;;;;2466274;55;20976;-82
2021/08/22 08:29:24;;;;;;;3.70;2.00;;;24.90;62.40;;;;;;2249727;55;20994;-82
2021/08/22 08:31:50;;;;;;;3.28;1.87;;;24.90;62.30;;;;;;2220045;55;20936;-82
2021/08/22 08:34:16;;;;;;;4.57;2.65;;;25.00;62.30;;;;;;2441900;55;20937;-81
2021/08/22 08:36:43;;;;;;;3.80;2.33;;;25.00;62.10;;;;;;2442052;55;21023;-82
2021/08/22 08:39:10;;;;;;;4.07;2.40;;;25.00;62.00;;;;;;2442467;55;20968;-83
2021/08/22 08:41:36;;;;;;;3.65;2.20;;;25.00;61.90;;;;;;2441915;55;21021;-82
2021/08/22 08:44:03;;;;;;;4.45;2.87;;;25.00;61.80;;;;;;2442585;55;22171;-81
2021/08/22 08:47:00;;;;;;;4.93;2.72;;;25.00;61.70;;;;;;2465621;55;20962;-82
2021/08/22 08:49:36;;;;;;;4.47;2.37;;;25.00;61.80;;;;;;2253538;55;22074;-82
2021/08/22 08:52:26;;;;;;;4.22;2.20;;;25.00;61.80;;;;;;2248013;55;21979;-79
2021/08/22 09:01:41;;;;;;;3.55;1.87;;;25.00;62.10;;;;;;2220869;55;20979;-80
2021/08/22 09:09:09;;;;;;;3.60;1.83;;;25.10;61.60;;;;;;2441863;55;22019;-81
2021/08/22 09:12:12;;;;;;;3.95;1.90;;;25.10;61.60;;;;;;2238530;55;21147;-84
2021/08/22 09:21:45;;;;;;;3.53;1.98;;;25.20;61.80;;;;;;2224332;55;21296;-81
2021/08/22 09:26:03;;;;;;;3.35;1.92;;;25.20;61.80;;;;;;2466391;55;20970;-82
2021/08/22 09:29:07;;;;;;;4.18;2.50;;;25.20;61.60;;;;;;2441419;55;21004;-82
2021/08/22 09:33:23;;;;;;;4.62;2.50;;;25.10;61.40;;;;;;2426307;55;21581;-82
2021/08/22 09:39:39;;;;;;;4.85;2.20;;;25.20;61.50;;;;;;2255598;55;21046;-82
2021/08/22 09:42:50;;;;;;;;;;;25.20;61.50;;;;;;2456677;55;20978;-81
2021/08/22 09:45:53;;;;;;;4.07;1.95;;;25.30;61.40;;;;;;2230872;55;20075;-81
2021/08/22 09:50:15;;;;;;;2.92;1.80;;;25.20;61.40;;;;;;2443208;55;20956;-81
2021/08/22 09:53:19;;;;;;;3.97;1.92;;;25.20;61.50;;;;;;2441202;55;20959;-81
2021/08/22 10:04:00;;;;;;;3.33;2.00;;;25.20;61.60;;;;;;2221301;55;21012;-81
2021/08/22 10:08:02;;;;;;;4.10;1.98;;;25.30;61.40;;;;;;2444792;55;20924;-83
2021/08/22 10:10:35;;;;;;;4.93;1.90;;;25.30;61.30;;;;;;2223172;55;21067;-83
2021/08/22 10:13:02;;;;;;;3.85;2.03;;;25.20;61.30;;;;;;2222815;55;21060;-83
2021/08/22 10:15:28;;;;;;;4.25;2.03;;;25.20;61.60;;;;;;2259372;55;21089;-82
2021/08/22 10:17:54;;;;;;;4.97;2.22;;;25.20;61.80;;;;;;2252390;55;20975;-83
2021/08/22 10:20:26;;;;;;;3.22;2.08;;;25.10;61.80;;;;;;2473700;55;21390;-85
2021/08/22 10:22:56;;;;;;;3.57;1.97;;;25.20;62.00;;;;;;2226813;55;20976;-83
2021/08/22 10:26:57;;;;;;;3.85;2.03;;;25.20;62.10;;;;;;2474306;55;20990;-83
2021/08/22 10:29:25;;;;;;;3.83;2.22;;;25.20;62.20;;;;;;2454949;55;21117;-82
2021/08/22 10:32:09;;;;;;;4.43;2.60;;;25.20;62.10;;;;;;2237385;55;21053;-86
2021/08/22 10:34:36;;;;;;;4.37;2.65;;;25.30;62.40;;;;;;2457002;55;21153;-82
2021/08/22 10:37:24;;;;;;;5.12;2.85;;;25.30;62.20;;;;;;2241976;55;21020;-83
2021/08/22 10:39:50;;;;;;;3.72;2.30;;;25.30;62.40;;;;;;2444788;55;21048;-83
2021/08/22 10:42:18;;;;;;;4.00;2.60;;;25.30;62.10;;;;;;2222293;55;21004;-85
2021/08/22 10:44:45;;;;;;;3.90;2.30;;;25.30;62.20;;;;;;2232371;55;20981;-84
2021/08/22 10:47:37;;;;;;;3.62;2.20;;;25.30;62.30;;;;;;2465910;55;21040;-83
2021/08/22 10:50:07;;;;;;;4.05;2.55;;;25.30;62.40;;;;;;2246635;55;21085;-83
2021/08/22 10:52:45;;;;;;;3.75;2.22;;;25.40;62.30;;;;;;2453453;54;20944;-83
2021/08/22 10:55:30;;;;;;;5.03;2.47;;;25.40;62.20;;;;;;2246727;55;21094;-83
2021/08/22 10:57:56;;;;;;;4.65;2.72;;;25.40;62.10;;;;;;2226995;55;21099;-83
2021/08/22 11:00:35;;;;;;;4.00;2.37;;;25.40;62.10;;;;;;2474429;55;20977;-83
2021/08/22 11:03:05;;;;;;;4.05;2.37;;;25.40;61.90;;;;;;2223669;55;21126;-84
2021/08/22 11:05:33;;;;;;;3.83;2.60;;;25.40;61.80;;;;;;2223130;55;22101;-83
2021/08/22 11:08:23;;;;;;;3.35;1.95;;;25.40;61.70;;;;;;2249908;55;20974;-83
2021/08/22 11:11:08;;;;;;;4.45;2.35;;;25.40;62.50;;;;;;2472737;55;20981;-82
2021/08/22 11:13:37;;;;;;;4.43;2.55;;;25.40;61.60;;;;;;2229387;55;20984;-83
2021/08/22 11:16:17;;;;;;;4.20;2.47;;;25.40;61.50;;;;;;2472358;55;20964;-84
2021/08/22 11:18:47;;;;;;;4.47;2.53;;;25.40;61.30;;;;;;2468447;55;21024;-83
2021/08/22 11:21:13;;;;;;;4.75;2.50;;;25.40;61.30;;;;;;2443883;55;22039;-83
2021/08/22 11:23:40;;;;;;;4.00;2.15;;;25.50;61.30;;;;;;2250295;55;20935;-82
2021/08/22 11:26:08;;;;;;;3.90;2.10;;;25.40;61.40;;;;;;2473806;55;20993;-83
2021/08/22 11:28:35;;;;;;;4.22;2.12;;;25.40;61.30;;;;;;2461915;55;22212;-82
2021/08/22 11:31:12;;;;;;;5.90;2.08;;;25.40;61.20;;;;;;2469453;55;22578;-83
2021/08/22 11:33:39;;;;;;;4.25;2.30;;;25.40;60.80;;;;;;2235571;55;21970;-82
2021/08/22 11:36:05;;;;;;;3.50;1.87;;;25.40;61.00;;;;;;2251109;55;20946;-83
2021/08/22 11:38:32;;;;;;;3.83;2.20;;;25.40;60.90;;;;;;2228981;55;21036;-82
2021/08/22 11:41:04;;;;;;;3.95;2.22;;;25.40;61.40;;;;;;2471122;55;21910;-83
2021/08/22 11:43:31;;;;;;;4.00;2.15;;;25.40;61.10;;;;;;2222334;55;21040;-83
2021/08/22 11:45:58;;;;;;;4.47;2.12;;;25.50;61.40;;;;;;2254562;55;21030;-82
2021/08/22 11:48:24;;;;;;;4.18;2.35;;;25.50;61.60;;;;;;2445827;55;20951;-83
2021/08/22 11:50:51;;;;;;;3.55;2.03;;;25.60;61.70;;;;;;2472651;55;20993;-84
2021/08/22 11:53:18;;;;;;;4.40;2.53;;;25.60;61.50;;;;;;2222978;55;20959;-84
2021/08/22 11:55:44;;;;;;;3.95;2.25;;;25.70;61.40;;;;;;2443995;55;20964;-83
2021/08/22 11:58:20;;;;;;;3.50;2.10;;;25.70;61.30;;;;;;2470601;55;22166;-82
2021/08/22 12:00:55;;;;;;;3.95;1.95;;;25.80;60.90;;;;;;2444578;55;20960;-83
2021/08/22 12:03:23;;;;;;;4.20;1.98;;;25.80;60.80;;;;;;2208845;55;21005;-84
2021/08/22 12:06:00;;;;;;;3.60;2.10;;;25.80;60.40;;;;;;2466495;55;21369;-86
2021/08/22 12:08:29;;;;;;;4.70;2.10;;;25.80;60.00;;;;;;2227611;55;20940;-83
2021/08/22 12:11:23;;;;;;;4.45;1.70;;;25.80;59.90;;;;;;2244425;55;21032;-83
2021/08/22 12:13:51;;;;;;;2.97;1.58;;;25.70;59.60;;;;;;2232269;55;20970;-84
2021/08/22 12:16:56;;;;;;;5.25;1.70;;;25.70;59.40;;;;;;2254641;55;21995;-84
2021/08/22 12:19:26;;;;;;;3.37;1.45;;;25.60;59.40;;;;;;2417538;55;21105;-83
2021/08/22 12:21:53;;;;;;;2.60;1.40;;;25.40;59.30;;;;;;2208416;55;20937;-84
2021/08/22 12:24:24;;;;;;;3.30;1.52;;;25.40;59.60;;;;;;2249620;55;20978;-84
2021/08/22 12:26:52;;;;;;;2.80;1.40;;;25.30;59.80;;;;;;2222197;55;21237;-82
2021/08/22 12:29:29;;;;;;;2.75;1.27;;;25.20;60.00;;;;;;2443664;55;20940;-82
2021/08/22 12:31:55;;;;;;;3.30;1.45;;;25.20;60.20;;;;;;2225464;55;20944;-82
2021/08/22 12:34:23;;;;;;;3.47;1.40;;;25.20;60.30;;;;;;2230101;55;21004;-83
2021/08/22 12:36:49;;;;;;;2.85;1.10;;;25.20;60.50;;;;;;2471895;55;20994;-83
2021/08/22 12:39:16;;;;;;;2.85;1.42;;;25.20;60.50;;;;;;2223516;55;20972;-83
2021/08/22 12:41:51;;;;;;;3.10;1.52;;;25.10;60.60;;;;;;2240888;55;21125;-83
2021/08/22 12:44:21;;;;;;;2.80;1.30;;;25.20;60.50;;;;;;2458634;55;20964;-83
2021/08/22 12:46:51;;;;;;;3.42;1.52;;;25.20;60.40;;;;;;2242064;55;20948;-83
2021/08/22 12:49:18;;;;;;;2.50;1.30;;;25.20;60.00;;;;;;2254647;55;20991;-83
2021/08/22 12:51:51;;;;;;;3.35;1.40;;;25.20;59.90;;;;;;2450078;55;20945;-83
2021/08/22 12:54:18;;;;;;;2.67;1.20;;;25.20;59.60;;;;;;2466847;55;20933;-82
2021/08/22 12:56:45;;;;;;;3.40;1.30;;;25.20;59.70;;;;;;2240731;55;20974;-82
2021/08/22 12:59:11;;;;;;;3.00;1.37;;;25.10;59.60;;;;;;2458715;55;20967;-83
2021/08/22 13:01:38;;;;;;;3.00;1.48;;;25.10;59.60;;;;;;2469243;55;21039;-84
2021/08/22 13:04:04;;;;;;;4.03;1.25;;;25.10;59.60;;;;;;2449663;55;21063;-83
2021/08/22 13:06:31;;;;;;;2.58;1.10;;;25.10;59.60;;;;;;2442451;55;20980;-83
2021/08/22 13:08:57;;;;;;;2.90;1.50;;;25.00;59.60;;;;;;2250714;55;21950;-83
2021/08/22 13:11:24;;;;;;;2.35;1.10;;;25.00;59.40;;;;;;2443861;55;20961;-84
2021/08/22 13:13:52;;;;;;;2.85;1.12;;;25.00;59.20;;;;;;2443980;55;20952;-83
2021/08/22 13:16:19;;;;;;;3.15;1.40;;;25.00;59.10;;;;;;2234879;55;21002;-85
2021/08/22 13:18:45;;;;;;;2.67;1.35;;;25.00;59.00;;;;;;2461942;55;21000;-83
2021/08/22 13:21:11;;;;;;;2.47;1.05;;;24.90;59.00;;;;;;2443345;55;21031;-83
2021/08/22 13:23:39;;;;;;;2.60;1.10;;;24.90;59.10;;;;;;2476493;55;20978;-83
2021/08/22 13:26:05;;;;;;;2.30;1.00;;;24.80;59.20;;;;;;2454651;55;20978;-83
2021/08/22 13:28:31;;;;;;;1.92;0.93;;;24.80;59.20;;;;;;2470216;55;20998;-84
2021/08/22 13:30:58;;;;;;;3.20;1.23;;;24.80;59.40;;;;;;2468800;55;21530;-84
2021/08/22 13:33:25;;;;;;;2.30;1.10;;;24.80;59.30;;;;;;2472713;55;21031;-83
2021/08/22 13:35:51;;;;;;;2.72;1.00;;;24.80;59.30;;;;;;2468827;55;21149;-84
2021/08/22 13:38:17;;;;;;;3.40;1.30;;;24.80;59.40;;;;;;2226364;55;20964;-84